createdAt,value
2018-07-30T00:01:04.447Z,18.10
2018-07-30T00:02:36.019Z,17.80
2018-07-30T00:04:07.593Z,19.50
2018-07-30T00:05:39.167Z,19.90
2018-07-30T00:07:10.741Z,19.50
2018-07-30T00:08:42.315Z,20.30
2018-07-30T00:10:13.995Z,19.70
2018-07-30T00:11:45.464Z,20.20
2018-07-30T00:13:17.036Z,20.90
2018-07-30T00:14:48.609Z,19.20
2018-07-30T00:16:20.183Z,21.60
2018-07-30T00:17:51.757Z,20.70
2018-07-30T00:19:23.330Z,21.10
2018-07-30T00:20:54.907Z,24.10
2018-07-30T00:22:26.477Z,22.20
2018-07-30T00:23:58.052Z,22.30
2018-07-30T00:25:29.625Z,22.20
2018-07-30T00:27:01.197Z,22.90
2018-07-30T00:28:33.674Z,24.70
2018-07-30T00:30:04.346Z,23.80
2018-07-30T00:31:35.919Z,23.20
2018-07-30T00:33:07.495Z,23.20
2018-07-30T00:34:39.068Z,24.20
2018-07-30T00:36:10.639Z,23.80
2018-07-30T00:37:42.212Z,25.70
2018-07-30T00:39:13.785Z,24.10
2018-07-30T00:40:45.609Z,25.20
2018-07-30T00:42:16.931Z,23.60
2018-07-30T00:43:48.509Z,24.10
2018-07-30T00:45:20.078Z,26.20
2018-07-30T00:46:51.891Z,25.10
2018-07-30T00:48:23.224Z,26.60
2018-07-30T00:49:54.798Z,24.40
2018-07-30T00:51:26.370Z,26.00
2018-07-30T00:52:57.945Z,26.70
2018-07-30T00:54:29.515Z,26.60
2018-07-30T00:56:01.090Z,27.30
2018-07-30T00:57:32.668Z,27.70
2018-07-30T00:59:04.335Z,26.20
2018-07-30T01:00:35.807Z,29.50
2018-07-30T01:02:07.381Z,25.70
2018-07-30T01:03:38.953Z,27.50
2018-07-30T01:05:10.677Z,30.10
2018-07-30T01:06:42.101Z,31.80
2018-07-30T01:08:13.674Z,28.10
2018-07-30T01:09:45.245Z,28.80
2018-07-30T01:11:17.070Z,30.00
2018-07-30T01:12:48.392Z,28.70
2018-07-30T01:14:19.968Z,28.80
2018-07-30T01:15:51.538Z,28.70
2018-07-30T01:17:23.111Z,28.40
2018-07-30T01:18:54.684Z,30.00
2018-07-30T01:20:26.259Z,28.40
2018-07-30T01:21:57.831Z,27.90
2018-07-30T01:23:29.502Z,28.90
2018-07-30T01:25:00.977Z,27.70
2018-07-30T01:26:32.550Z,28.10
2018-07-30T01:28:04.122Z,30.00
2018-07-30T01:29:35.800Z,29.30
2018-07-30T01:31:07.269Z,28.60
2018-07-30T01:32:38.845Z,27.80
2018-07-30T01:34:10.416Z,30.60
2018-07-30T01:35:41.990Z,29.20
2018-07-30T01:37:13.562Z,30.60
2018-07-30T01:38:45.136Z,29.10
2018-07-30T01:40:16.710Z,28.60
2018-07-30T01:41:48.636Z,29.20
2018-07-30T01:43:19.857Z,29.50
2018-07-30T01:44:51.433Z,29.60
2018-07-30T01:46:23.003Z,27.50
2018-07-30T01:47:54.576Z,27.30
2018-07-30T01:49:26.150Z,28.00
2018-07-30T01:50:57.722Z,27.90
2018-07-30T01:52:29.296Z,28.50
2018-07-30T01:54:00.870Z,27.80
2018-07-30T01:55:32.452Z,27.10
2018-07-30T01:57:04.017Z,27.30
2018-07-30T01:58:35.591Z,28.20
2018-07-30T02:00:07.415Z,28.30
2018-07-30T02:01:38.737Z,29.80
2018-07-30T02:03:10.311Z,29.00
2018-07-30T02:04:41.886Z,29.90
2018-07-30T02:06:13.458Z,31.20
2018-07-30T02:07:45.032Z,30.80
2018-07-30T02:09:16.607Z,31.20
2018-07-30T02:10:48.179Z,31.40
2018-07-30T02:12:19.752Z,31.50
2018-07-30T02:13:51.327Z,31.20
2018-07-30T02:15:22.900Z,30.00
2018-07-30T02:16:54.474Z,31.80
2018-07-30T02:18:26.848Z,29.90
2018-07-30T02:19:57.620Z,29.50
2018-07-30T02:21:29.259Z,28.60
2018-07-30T02:23:00.768Z,27.50
2018-07-30T02:24:32.342Z,28.40
2018-07-30T02:26:03.915Z,30.10
2018-07-30T02:27:35.488Z,30.10
2018-07-30T02:29:07.062Z,29.80
2018-07-30T02:30:38.736Z,30.20
2018-07-30T02:32:10.208Z,30.20
2018-07-30T02:33:41.782Z,30.10
2018-07-30T02:35:13.356Z,29.70
2018-07-30T02:36:45.031Z,29.70
2018-07-30T02:38:16.506Z,30.40
2018-07-30T02:39:48.079Z,30.50
2018-07-30T02:41:19.649Z,30.50
2018-07-30T02:42:51.224Z,30.40
2018-07-30T02:44:22.800Z,29.90
2018-07-30T02:45:54.374Z,30.40
2018-07-30T02:47:25.943Z,30.60
2018-07-30T02:48:57.517Z,30.70
2018-07-30T02:50:29.092Z,29.20
2018-07-30T02:52:00.662Z,29.60
2018-07-30T02:53:32.239Z,28.10
2018-07-30T02:55:03.913Z,27.50
2018-07-30T02:56:35.383Z,27.10
2018-07-30T02:58:06.955Z,26.90
2018-07-30T02:59:38.537Z,26.60
2018-07-30T03:01:10.102Z,25.30
2018-07-30T03:02:41.682Z,26.00
2018-07-30T03:04:13.249Z,26.80
2018-07-30T03:05:44.822Z,26.80
2018-07-30T03:07:16.396Z,24.80
2018-07-30T03:08:47.969Z,25.70
2018-07-30T03:10:19.544Z,26.30
2018-07-30T03:11:51.116Z,26.20
2018-07-30T03:13:22.793Z,25.40
2018-07-30T03:14:54.264Z,26.60
2018-07-30T03:16:25.837Z,25.30
2018-07-30T03:17:57.410Z,26.10
2018-07-30T03:19:28.982Z,26.40
2018-07-30T03:21:00.557Z,26.70
2018-07-30T03:22:32.129Z,26.90
2018-07-30T03:24:03.704Z,26.70
2018-07-30T03:25:35.279Z,25.70
2018-07-30T03:27:06.851Z,26.90
2018-07-30T03:28:38.465Z,28.30
2018-07-30T03:30:09.996Z,26.70
2018-07-30T03:31:41.829Z,26.60
2018-07-30T03:33:13.141Z,26.80
2018-07-30T03:34:44.715Z,25.40
2018-07-30T03:36:16.291Z,25.90
2018-07-30T03:37:47.864Z,24.30
2018-07-30T03:39:19.434Z,25.30
2018-07-30T03:40:51.005Z,24.50
2018-07-30T03:42:22.585Z,24.80
2018-07-30T03:43:54.151Z,26.60
2018-07-30T03:45:25.724Z,25.80
2018-07-30T03:46:57.296Z,26.40
2018-07-30T03:48:28.869Z,24.40
2018-07-30T03:50:00.792Z,24.40
2018-07-30T03:51:32.014Z,25.30
2018-07-30T03:53:03.586Z,25.40
2018-07-30T03:54:35.191Z,24.70
2018-07-30T03:56:06.731Z,24.20
2018-07-30T03:57:38.303Z,25.60
2018-07-30T03:59:09.875Z,27.90
2018-07-30T04:00:41.446Z,23.80
2018-07-30T04:02:13.122Z,27.70
2018-07-30T04:03:44.600Z,28.50
2018-07-30T04:05:16.164Z,29.60
2018-07-30T04:06:47.736Z,24.50
2018-07-30T04:08:19.408Z,26.50
2018-07-30T04:09:50.880Z,26.70
2018-07-30T04:11:22.453Z,24.40
2018-07-30T04:12:54.024Z,22.90
2018-07-30T04:14:25.596Z,23.80
2018-07-30T04:15:57.168Z,23.30
2018-07-30T04:17:28.742Z,23.10
2018-07-30T04:19:00.313Z,23.00
2018-07-30T04:20:31.884Z,22.50
2018-07-30T04:22:03.462Z,22.00
2018-07-30T04:23:35.029Z,22.60
2018-07-30T04:25:06.602Z,23.90
2018-07-30T04:26:38.271Z,21.80
2018-07-30T04:28:09.744Z,22.30
2018-07-30T04:29:41.316Z,22.10
2018-07-30T04:31:12.888Z,22.40
2018-07-30T04:32:44.560Z,22.40
2018-07-30T04:34:16.033Z,22.70
2018-07-30T04:35:47.604Z,22.60
2018-07-30T04:37:19.182Z,22.60
2018-07-30T04:38:50.749Z,23.00
2018-07-30T04:40:22.320Z,22.00
2018-07-30T04:41:53.891Z,22.40
2018-07-30T04:43:25.463Z,22.20
2018-07-30T04:44:57.385Z,21.90
2018-07-30T04:46:28.607Z,20.90
2018-07-30T04:48:00.179Z,22.20
2018-07-30T04:49:31.751Z,22.80
2018-07-30T04:51:03.373Z,22.10
2018-07-30T04:52:34.893Z,23.20
2018-07-30T04:54:06.468Z,23.30
2018-07-30T04:55:38.037Z,22.70
2018-07-30T04:57:09.610Z,23.00
2018-07-30T04:58:41.183Z,22.30
2018-07-30T05:00:12.753Z,22.10
2018-07-30T05:01:44.325Z,20.40
2018-07-30T05:03:16.099Z,21.40
2018-07-30T05:04:47.467Z,21.20
2018-07-30T05:06:19.039Z,21.40
2018-07-30T05:07:50.611Z,21.80
2018-07-30T05:09:22.183Z,21.00
2018-07-30T05:10:53.754Z,21.40
2018-07-30T05:12:25.326Z,20.30
2018-07-30T05:13:56.897Z,20.90
2018-07-30T05:15:28.719Z,19.30
2018-07-30T05:17:00.041Z,21.20
2018-07-30T05:18:31.612Z,20.20
2018-07-30T05:20:03.185Z,19.80
2018-07-30T05:21:34.855Z,20.80
2018-07-30T05:23:06.325Z,21.00
2018-07-30T05:24:37.896Z,21.00
2018-07-30T05:26:09.469Z,20.10
2018-07-30T05:27:41.040Z,20.30
2018-07-30T05:29:12.610Z,21.60
2018-07-30T05:30:44.184Z,22.00
2018-07-30T05:32:15.753Z,21.60
2018-07-30T05:33:47.423Z,20.80
2018-07-30T05:35:18.895Z,21.70
2018-07-30T05:36:50.465Z,21.70
2018-07-30T05:38:22.041Z,22.90
2018-07-30T05:39:53.809Z,21.00
2018-07-30T05:41:25.180Z,21.80
2018-07-30T05:42:56.755Z,21.00
2018-07-30T05:44:28.321Z,22.60
2018-07-30T05:45:59.893Z,20.90
2018-07-30T05:47:31.464Z,21.60
2018-07-30T05:49:03.035Z,23.10
2018-07-30T05:50:34.610Z,23.00
2018-07-30T05:52:06.181Z,24.30
2018-07-30T05:53:37.748Z,23.80
2018-07-30T05:55:09.319Z,23.70
2018-07-30T05:56:40.890Z,23.40
2018-07-30T05:58:12.561Z,24.10
2018-07-30T05:59:44.078Z,22.50
2018-07-30T06:01:15.601Z,23.00
2018-07-30T06:02:47.173Z,24.20
2018-07-30T06:04:18.843Z,25.10
2018-07-30T06:05:50.318Z,24.20
2018-07-30T06:07:21.885Z,22.90
2018-07-30T06:08:53.457Z,24.50
2018-07-30T06:10:25.127Z,21.80
2018-07-30T06:11:56.597Z,24.10
2018-07-30T06:13:28.167Z,23.30
2018-07-30T06:14:59.738Z,23.70
2018-07-30T06:16:31.659Z,25.50
2018-07-30T06:18:04.082Z,23.40
2018-07-30T06:19:34.450Z,22.30
2018-07-30T06:21:06.029Z,24.10
2018-07-30T06:22:37.592Z,22.50
2018-07-30T06:24:09.163Z,22.70
2018-07-30T06:25:40.734Z,24.40
2018-07-30T06:27:12.305Z,22.80
2018-07-30T06:28:43.875Z,23.40
2018-07-30T06:30:15.446Z,23.70
2018-07-30T06:31:47.044Z,23.70
2018-07-30T06:33:18.589Z,24.50
2018-07-30T06:34:50.262Z,23.30
2018-07-30T06:36:21.729Z,25.00
2018-07-30T06:37:53.301Z,24.00
2018-07-30T06:39:24.869Z,24.60
2018-07-30T06:40:56.441Z,24.10
2018-07-30T06:42:28.012Z,23.10
2018-07-30T06:43:59.582Z,27.00
2018-07-30T06:45:31.154Z,25.20
2018-07-30T06:47:02.975Z,23.30
2018-07-30T06:48:34.296Z,25.80
2018-07-30T06:50:05.866Z,28.10
2018-07-30T06:51:37.436Z,26.30
2018-07-30T06:53:09.116Z,25.30
2018-07-30T06:54:40.578Z,25.50
2018-07-30T06:56:12.148Z,23.10
2018-07-30T06:57:43.719Z,24.90
2018-07-30T06:59:15.289Z,28.10
2018-07-30T07:00:46.860Z,24.90
2018-07-30T07:02:18.431Z,25.20
2018-07-30T07:03:50.003Z,27.20
2018-07-30T07:05:21.673Z,26.50
2018-07-30T07:06:53.146Z,27.60
2018-07-30T07:08:24.715Z,27.00
2018-07-30T07:09:56.286Z,28.40
2018-07-30T07:11:27.962Z,25.30
2018-07-30T07:12:59.427Z,26.80
2018-07-30T07:14:30.997Z,28.10
2018-07-30T07:16:02.568Z,28.80
2018-07-30T07:17:34.388Z,27.90
2018-07-30T07:19:05.709Z,26.20
2018-07-30T07:20:37.297Z,25.10
2018-07-30T07:22:08.851Z,25.30
2018-07-30T07:23:40.521Z,27.90
2018-07-30T07:25:11.992Z,31.00
2018-07-30T07:26:43.563Z,28.90
2018-07-30T07:28:15.134Z,29.20
2018-07-30T07:29:46.804Z,29.40
2018-07-30T07:31:18.275Z,30.20
2018-07-30T07:32:49.846Z,26.30
2018-07-30T07:34:21.417Z,27.90
2018-07-30T07:35:53.089Z,27.90
2018-07-30T07:37:24.558Z,28.10
2018-07-30T07:38:56.129Z,32.00
2018-07-30T07:40:27.700Z,34.10
2018-07-30T07:41:59.272Z,29.70
2018-07-30T07:43:30.842Z,31.50
2018-07-30T07:45:02.468Z,26.10
2018-07-30T07:46:33.986Z,28.30
2018-07-30T07:48:05.905Z,29.90
2018-07-30T07:49:37.125Z,34.60
2018-07-30T07:51:08.750Z,33.70
2018-07-30T07:52:40.267Z,32.20
2018-07-30T07:54:11.843Z,32.20
2018-07-30T07:55:43.408Z,31.90
2018-07-30T07:57:14.979Z,33.40
2018-07-30T07:58:46.551Z,33.50
2018-07-30T08:00:18.123Z,31.80
2018-07-30T08:01:49.692Z,31.50
2018-07-30T08:03:21.267Z,31.80
2018-07-30T08:04:52.835Z,33.20
2018-07-30T08:06:24.608Z,34.70
2018-07-30T08:07:55.976Z,33.20
2018-07-30T08:09:27.549Z,32.10
2018-07-30T08:10:59.189Z,32.50
2018-07-30T08:12:30.688Z,32.00
2018-07-30T08:14:02.260Z,33.60
2018-07-30T08:15:33.831Z,34.80
2018-07-30T08:17:05.401Z,33.30
2018-07-30T08:18:37.221Z,34.60
2018-07-30T08:20:08.543Z,33.30
2018-07-30T08:21:40.112Z,32.30
2018-07-30T08:23:11.682Z,35.20
2018-07-30T08:24:43.353Z,33.90
2018-07-30T08:26:14.823Z,34.10
2018-07-30T08:27:46.398Z,33.50
2018-07-30T08:29:17.969Z,34.80
2018-07-30T08:30:49.535Z,33.80
2018-07-30T08:32:21.108Z,34.60
2018-07-30T08:33:52.676Z,36.00
2018-07-30T08:35:24.250Z,34.70
2018-07-30T08:36:55.917Z,33.50
2018-07-30T08:38:27.387Z,34.40
2018-07-30T08:39:58.958Z,33.00
2018-07-30T08:41:30.528Z,36.20
2018-07-30T08:43:02.349Z,38.40
2018-07-30T08:44:33.669Z,41.10
2018-07-30T08:46:05.239Z,38.00
2018-07-30T08:47:36.810Z,38.30
2018-07-30T08:49:08.380Z,41.10
2018-07-30T08:50:39.950Z,40.10
2018-07-30T08:52:11.520Z,39.80
2018-07-30T08:53:43.091Z,37.80
2018-07-30T08:55:14.661Z,44.50
2018-07-30T08:56:46.231Z,43.00
2018-07-30T08:58:17.803Z,44.40
2018-07-30T08:59:49.372Z,44.50
2018-07-30T09:01:21.042Z,44.10
2018-07-30T09:02:52.515Z,46.90
2018-07-30T09:04:24.082Z,48.30
2018-07-30T09:05:55.653Z,45.40
2018-07-30T09:07:27.323Z,46.70
2018-07-30T09:08:58.796Z,45.60
2018-07-30T09:10:30.362Z,45.60
2018-07-30T09:12:01.935Z,49.20
2018-07-30T09:13:33.502Z,49.00
2018-07-30T09:15:05.072Z,51.60
2018-07-30T09:16:36.641Z,51.90
2018-07-30T09:18:08.291Z,52.10
2018-07-30T09:19:39.881Z,49.60
2018-07-30T09:21:11.351Z,53.00
2018-07-30T09:22:42.920Z,54.60
2018-07-30T09:24:14.537Z,52.80
2018-07-30T09:25:46.059Z,55.20
2018-07-30T09:27:17.629Z,54.90
2018-07-30T09:28:49.199Z,52.00
2018-07-30T09:30:20.767Z,50.00
2018-07-30T09:31:52.338Z,54.90
2018-07-30T09:33:23.907Z,53.10
2018-07-30T09:34:55.477Z,53.50
2018-07-30T09:36:27.046Z,53.70
2018-07-30T09:37:58.916Z,56.40
2018-07-30T09:39:30.191Z,56.70
2018-07-30T09:41:01.758Z,56.20
2018-07-30T09:42:33.325Z,56.70
2018-07-30T09:44:04.895Z,58.00
2018-07-30T09:45:36.466Z,53.20
2018-07-30T09:47:08.037Z,55.20
2018-07-30T09:48:39.604Z,53.70
2018-07-30T09:50:11.424Z,52.80
2018-07-30T09:51:42.744Z,53.50
2018-07-30T09:53:14.314Z,51.80
2018-07-30T09:54:45.886Z,49.80
2018-07-30T09:56:17.568Z,47.80
2018-07-30T09:57:49.024Z,52.40
2018-07-30T09:59:20.899Z,50.90
2018-07-30T10:00:52.163Z,51.80
2018-07-30T10:02:23.736Z,50.10
2018-07-30T10:03:55.304Z,47.60
2018-07-30T10:06:58.444Z,48.30
2018-07-30T10:08:30.116Z,47.70
2018-07-30T10:10:01.585Z,47.00
2018-07-30T10:11:33.195Z,42.80
2018-07-30T10:13:04.726Z,46.10
2018-07-30T10:14:36.396Z,43.20
2018-07-30T10:16:07.867Z,43.50
2018-07-30T10:17:39.474Z,45.80
2018-07-30T10:19:11.008Z,45.60
2018-07-30T10:20:42.584Z,45.40
2018-07-30T10:22:14.149Z,43.20
2018-07-30T10:23:46.302Z,41.90
2018-07-30T10:25:17.290Z,40.50
2018-07-30T10:26:48.861Z,41.90
2018-07-30T10:28:20.432Z,40.80
2018-07-30T10:29:52.002Z,42.20
2018-07-30T10:31:23.573Z,38.80
2018-07-30T10:32:55.245Z,38.40
2018-07-30T10:35:58.286Z,36.10
2018-07-30T10:37:29.857Z,34.90
2018-07-30T10:39:01.529Z,33.10
2018-07-30T10:42:04.571Z,33.90
2018-07-30T10:43:36.665Z,31.20
2018-07-30T10:45:07.714Z,32.80
2018-07-30T10:48:10.899Z,29.90
2018-07-30T10:51:14.100Z,26.20
2018-07-30T10:52:45.572Z,26.90
2018-07-30T10:57:20.593Z,27.00
2018-07-30T10:58:51.894Z,24.90
2018-07-30T11:00:23.435Z,25.30
2018-07-30T11:01:55.009Z,24.40
2018-07-30T11:04:58.153Z,25.70
2018-07-30T11:06:29.728Z,24.90
2018-07-30T11:08:01.301Z,24.60
2018-07-30T11:11:04.601Z,25.10
2018-07-30T11:12:36.228Z,24.50
2018-07-30T11:14:07.594Z,23.90
2018-07-30T11:15:39.175Z,22.40
2018-07-30T11:17:10.743Z,21.60
2018-07-30T11:18:42.319Z,21.40
2018-07-30T11:20:13.895Z,21.70
2018-07-30T11:26:20.308Z,23.00
2018-07-30T11:27:51.800Z,21.60
2018-07-30T11:32:27.417Z,19.50
2018-07-30T11:33:58.082Z,20.00
2018-07-30T11:35:29.662Z,19.20
2018-07-30T11:38:32.817Z,21.00
2018-07-30T11:40:04.442Z,21.50
2018-07-30T11:43:07.549Z,21.20
2018-07-30T11:44:39.628Z,21.60
2018-07-30T11:46:10.703Z,21.00
2018-07-30T11:47:42.280Z,21.50
2018-07-30T11:49:13.860Z,18.80
2018-07-30T11:50:45.689Z,22.00
2018-07-30T11:52:17.018Z,20.00
2018-07-30T11:55:20.176Z,21.90
2018-07-30T11:56:52.109Z,22.00
2018-07-30T11:59:54.912Z,23.10
2018-07-30T12:01:26.591Z,21.70
2018-07-30T12:02:58.169Z,22.40
2018-07-30T12:07:33.013Z,22.70
2018-07-30T12:09:04.834Z,21.60
2018-07-30T12:10:35.957Z,22.30
2018-07-30T12:12:07.757Z,21.70
2018-07-30T12:13:39.122Z,21.20
2018-07-30T12:15:10.893Z,22.90
2018-07-30T12:16:42.267Z,22.00
2018-07-30T12:18:14.149Z,21.70
2018-07-30T12:19:45.428Z,22.30
2018-07-30T12:21:17.091Z,22.50
2018-07-30T12:22:49.075Z,22.20
2018-07-30T12:24:20.346Z,21.80
2018-07-30T12:25:51.720Z,22.00
2018-07-30T12:27:23.297Z,23.40
2018-07-30T12:28:55.176Z,21.10
2018-07-30T12:31:58.230Z,23.30
2018-07-30T12:33:29.605Z,24.10
2018-07-30T12:35:01.183Z,22.60
2018-07-30T12:36:33.155Z,22.60
2018-07-30T12:39:36.321Z,23.00
2018-07-30T12:41:07.523Z,22.90
2018-07-30T12:42:39.073Z,22.00
2018-07-30T12:44:10.858Z,23.00
2018-07-30T12:45:42.434Z,21.70
2018-07-30T12:47:13.845Z,21.80
2018-07-30T12:50:16.973Z,23.50
2018-07-30T12:51:48.757Z,21.80
2018-07-30T12:53:20.135Z,23.20
2018-07-30T12:56:23.298Z,21.60
2018-07-30T12:57:55.065Z,20.60
2018-07-30T12:59:26.461Z,18.40
2018-07-30T13:00:58.565Z,16.70
2018-07-30T13:02:29.675Z,15.50
2018-07-30T13:04:01.453Z,16.20
2018-07-30T13:05:32.778Z,15.80
2018-07-30T13:07:04.357Z,17.00
2018-07-30T13:08:35.934Z,15.10
2018-07-30T13:10:07.729Z,16.40
2018-07-30T13:11:39.089Z,15.80
2018-07-30T13:13:10.667Z,16.60
2018-07-30T13:14:42.244Z,14.00
2018-07-30T13:16:14.171Z,15.00
2018-07-30T13:17:45.600Z,14.20
2018-07-30T13:19:17.500Z,13.20
2018-07-30T13:20:48.552Z,13.30
2018-07-30T13:22:20.134Z,12.70
2018-07-30T13:23:51.711Z,12.00
2018-07-30T13:25:23.286Z,12.50
2018-07-30T13:26:54.978Z,11.70
2018-07-30T13:28:26.443Z,12.20
2018-07-30T13:29:58.024Z,12.10
2018-07-30T13:31:29.751Z,11.20
2018-07-30T13:34:32.866Z,11.30
2018-07-30T13:37:35.926Z,9.80
2018-07-30T13:39:07.651Z,9.20
2018-07-30T13:40:39.080Z,9.40
2018-07-30T13:42:10.659Z,11.30
2018-07-30T13:45:13.817Z,10.30
2018-07-30T13:46:45.600Z,11.30
2018-07-30T13:48:16.976Z,10.10
2018-07-30T13:49:48.556Z,10.60
2018-07-30T13:51:20.136Z,9.80
2018-07-30T13:52:51.819Z,9.10
2018-07-30T13:54:23.926Z,9.40
2018-07-30T13:55:54.880Z,9.50
2018-07-30T13:58:58.567Z,10.40
2018-07-30T14:00:29.619Z,10.90
2018-07-30T14:02:01.199Z,10.00
2018-07-30T14:05:07.495Z,11.00
2018-07-30T14:06:36.097Z,10.50
2018-07-30T14:11:11.379Z,10.70
2018-07-30T14:12:42.368Z,10.90
2018-07-30T14:14:13.846Z,11.20
2018-07-30T14:15:45.608Z,10.50
2018-07-30T14:17:17.084Z,11.00
2018-07-30T14:18:48.562Z,11.30
2018-07-30T14:20:20.147Z,12.00
2018-07-30T14:21:51.721Z,12.30
2018-07-30T14:23:23.296Z,11.90
2018-07-30T14:24:54.877Z,11.90
2018-07-30T14:26:26.453Z,11.60
2018-07-30T14:27:58.031Z,11.10
2018-07-30T14:29:29.710Z,11.70
2018-07-30T14:31:01.195Z,11.60
2018-07-30T14:32:32.770Z,11.30
2018-07-30T14:34:04.654Z,12.50
2018-07-30T14:35:35.947Z,11.70
2018-07-30T14:37:07.713Z,12.10
2018-07-30T14:38:39.101Z,13.40
2018-07-30T14:40:10.672Z,11.80
2018-07-30T14:41:42.607Z,11.90
2018-07-30T14:43:13.835Z,11.50
2018-07-30T14:44:45.619Z,12.20
2018-07-30T14:46:16.998Z,11.90
2018-07-30T14:47:48.833Z,11.80
2018-07-30T14:49:20.164Z,12.10
2018-07-30T14:50:51.747Z,12.40
2018-07-30T14:52:23.331Z,12.40
2018-07-30T14:53:55.219Z,12.70
2018-07-30T14:55:26.505Z,12.20
2018-07-30T14:56:58.387Z,12.10
2018-07-30T14:58:30.169Z,11.00
2018-07-30T15:00:01.278Z,12.10
2018-07-30T15:01:33.036Z,12.40
2018-07-30T15:03:04.467Z,12.50
2018-07-30T15:04:36.304Z,13.30
2018-07-30T15:07:39.568Z,14.60
2018-07-30T15:09:10.746Z,18.10
2018-07-30T15:10:42.632Z,15.80
2018-07-30T15:13:45.696Z,17.70
2018-07-30T15:15:17.072Z,18.10
2018-07-30T15:16:48.653Z,16.80
2018-07-30T15:18:20.761Z,15.30
2018-07-30T15:19:51.914Z,15.60
2018-07-30T15:21:23.395Z,15.10
2018-07-30T15:22:55.179Z,16.70
2018-07-30T15:24:26.554Z,16.50
2018-07-30T15:25:58.236Z,16.20
2018-07-30T15:27:29.711Z,16.70
2018-07-30T15:29:01.291Z,16.30
2018-07-30T15:30:33.801Z,15.30
2018-07-30T15:32:04.447Z,13.90
2018-07-30T15:33:36.023Z,13.00
2018-07-30T15:35:07.602Z,12.40
2018-07-30T15:36:39.382Z,11.50
2018-07-30T15:38:10.759Z,11.60
2018-07-30T15:39:42.339Z,12.60
2018-07-30T15:41:13.998Z,12.40
2018-07-30T15:45:48.746Z,11.30
2018-07-30T15:47:20.223Z,11.40
2018-07-30T15:48:51.851Z,11.30
2018-07-30T15:50:23.566Z,12.30
2018-07-30T15:51:54.955Z,10.70
2018-07-30T15:53:26.554Z,12.20
2018-07-30T15:54:58.847Z,10.60
2018-07-30T15:58:01.256Z,10.40
2018-07-30T15:59:33.036Z,10.30
2018-07-30T16:01:04.406Z,9.70
2018-07-30T16:02:35.991Z,9.80
2018-07-30T16:04:08.460Z,9.60
2018-07-30T16:05:39.161Z,9.20
2018-07-30T16:07:10.711Z,9.50
2018-07-30T16:08:42.286Z,8.80
2018-07-30T16:10:13.864Z,8.70
2018-07-30T16:13:17.019Z,9.00
2018-07-30T16:14:48.595Z,8.10
2018-07-30T16:16:20.172Z,8.70
2018-07-30T16:17:51.792Z,8.40
2018-07-30T16:19:23.328Z,8.60
2018-07-30T16:20:54.906Z,8.40
2018-07-30T16:22:26.785Z,8.40
2018-07-30T16:23:58.369Z,8.10
2018-07-30T16:25:29.640Z,9.00
2018-07-30T16:27:01.421Z,8.10
2018-07-30T16:28:32.899Z,9.50
2018-07-30T16:30:04.385Z,9.30
2018-07-30T16:31:36.207Z,8.70
2018-07-30T16:33:07.532Z,8.90
2018-07-30T16:34:39.113Z,8.60
2018-07-30T16:36:10.716Z,9.10
2018-07-30T16:37:42.271Z,8.80
2018-07-30T16:39:14.154Z,9.30
2018-07-30T16:40:45.579Z,9.10
2018-07-30T16:42:17.555Z,9.20
2018-07-30T16:43:49.360Z,9.40
2018-07-30T16:45:20.165Z,8.60
2018-07-30T16:46:51.932Z,9.60
2018-07-30T16:48:23.324Z,10.70
2018-07-30T16:49:54.904Z,9.50
2018-07-30T16:51:26.479Z,10.70
2018-07-30T16:52:58.832Z,9.60
2018-07-30T16:54:29.636Z,10.00
2018-07-30T16:56:01.217Z,8.00
2018-07-30T16:57:33.100Z,9.50
2018-07-30T16:59:04.473Z,8.90
2018-07-30T17:00:35.950Z,8.20
2018-07-30T17:02:07.528Z,9.20
2018-07-30T17:05:10.693Z,9.00
2018-07-30T17:06:42.315Z,9.70
2018-07-30T17:08:13.849Z,7.90
2018-07-30T17:09:45.416Z,8.60
2018-07-30T17:11:17.001Z,8.50
2018-07-30T17:12:48.928Z,8.70
2018-07-30T17:14:20.149Z,8.30
2018-07-30T17:15:51.928Z,8.50
2018-07-30T17:17:23.484Z,9.10
2018-07-30T17:18:55.003Z,8.40
2018-07-30T17:20:26.663Z,8.90
2018-07-30T17:21:58.069Z,8.40
2018-07-30T17:23:29.624Z,8.30
2018-07-30T17:26:32.774Z,7.80
2018-07-30T17:28:04.381Z,8.70
2018-07-30T17:29:36.272Z,8.30
2018-07-30T17:31:07.510Z,7.80
2018-07-30T17:32:39.383Z,8.30
2018-07-30T17:34:10.670Z,8.90
2018-07-30T17:37:14.076Z,9.20
2018-07-30T17:38:45.417Z,8.10
2018-07-30T17:40:16.986Z,8.30
2018-07-30T17:41:48.560Z,7.80
2018-07-30T17:44:51.955Z,7.00
2018-07-30T17:46:23.730Z,7.20
2018-07-30T17:47:55.159Z,7.00
2018-07-30T17:49:26.450Z,6.60
2018-07-30T17:50:58.377Z,7.20
2018-07-30T17:52:29.819Z,6.70
2018-07-30T17:54:01.186Z,6.70
2018-07-30T17:55:32.764Z,6.40
2018-07-30T17:57:04.945Z,6.60
2018-07-30T17:58:35.917Z,6.70
2018-07-30T18:00:08.020Z,6.90
2018-07-30T18:01:39.072Z,7.10
2018-07-30T18:03:10.952Z,7.10
2018-07-30T18:04:42.226Z,6.80
2018-07-30T18:06:13.804Z,6.90
2018-07-30T18:07:45.381Z,6.90
2018-07-30T18:09:16.998Z,6.90
2018-07-30T18:10:48.594Z,7.70
2018-07-30T18:13:51.689Z,7.10
2018-07-30T18:15:23.366Z,7.30
2018-07-30T18:16:54.843Z,7.40
2018-07-30T18:19:58.008Z,6.40
2018-07-30T18:21:29.585Z,6.80
2018-07-30T18:23:01.675Z,6.10
2018-07-30T18:26:04.829Z,6.90
2018-07-30T18:27:35.941Z,6.80
2018-07-30T18:30:39.028Z,6.50
2018-07-30T18:32:10.603Z,6.30
2018-07-30T18:33:42.281Z,6.20
2018-07-30T18:35:13.972Z,5.70
2018-07-30T18:36:46.059Z,6.10
2018-07-30T18:38:17.938Z,6.60
2018-07-30T18:39:48.480Z,6.40
2018-07-30T18:41:20.099Z,7.00
2018-07-30T18:42:52.136Z,7.00
2018-07-30T18:44:23.252Z,7.40
2018-07-30T18:45:54.945Z,7.10
2018-07-30T18:47:26.359Z,7.10
2018-07-30T18:48:57.928Z,7.60
2018-07-30T18:50:29.501Z,7.60
2018-07-30T18:52:01.180Z,7.90
2018-07-30T18:53:32.649Z,7.40
2018-07-30T18:55:04.223Z,7.40
2018-07-30T18:56:36.123Z,7.90
2018-07-30T18:58:07.374Z,7.30
2018-07-30T18:59:39.245Z,7.80
2018-07-30T19:01:10.520Z,8.70
2018-07-30T19:02:42.307Z,9.00
2018-07-30T19:04:13.659Z,8.50
2018-07-30T19:05:45.232Z,7.70
2018-07-30T19:07:16.958Z,9.10
2018-07-30T19:08:48.379Z,7.40
2018-07-30T19:10:20.250Z,9.30
2018-07-30T19:11:52.047Z,7.60
2018-07-30T19:14:55.287Z,8.90
2018-07-30T19:16:26.336Z,8.60
2018-07-30T19:17:57.808Z,8.30
2018-07-30T19:19:29.380Z,9.30
2018-07-30T19:21:01.155Z,8.90
2018-07-30T19:22:32.527Z,7.90
2018-07-30T19:25:35.877Z,8.60
2018-07-30T19:28:38.920Z,7.70
2018-07-30T19:30:10.696Z,8.20
2018-07-30T19:31:41.989Z,9.10
2018-07-30T19:34:45.114Z,9.70
2018-07-30T19:36:16.700Z,9.40
2018-07-30T19:39:20.133Z,9.80
2018-07-30T19:40:51.403Z,9.30
2018-07-30T19:48:31.457Z,10.10
2018-07-30T19:50:00.838Z,9.50
2018-07-30T19:51:32.437Z,9.30
2018-07-30T19:53:03.991Z,8.90
2018-07-30T19:54:35.556Z,8.20
2018-07-30T19:56:07.129Z,8.00
2018-07-30T19:59:10.803Z,7.90
2018-07-30T20:00:41.847Z,8.60
2018-07-30T20:02:13.502Z,8.50
2018-07-30T20:03:44.994Z,8.80
2018-07-30T20:05:16.605Z,9.10
2018-07-30T20:06:48.549Z,8.80
2018-07-30T20:08:19.762Z,9.30
2018-07-30T20:09:51.399Z,11.00
2018-07-30T20:12:54.431Z,11.60
2018-07-30T20:14:26.202Z,11.90
2018-07-30T20:15:57.575Z,11.30
2018-07-30T20:17:29.144Z,10.70
2018-07-30T20:19:00.829Z,10.70
2018-07-30T20:20:32.299Z,10.20
2018-07-30T20:22:04.164Z,10.50
2018-07-30T20:25:07.103Z,10.70
2018-07-30T20:26:38.582Z,10.70
2018-07-30T20:29:41.738Z,10.00
2018-07-30T20:31:13.292Z,9.30
2018-07-30T20:32:44.864Z,8.90
2018-07-30T20:34:16.434Z,9.10
2018-07-30T20:35:48.006Z,9.60
2018-07-30T20:37:19.671Z,9.50
2018-07-30T20:38:51.149Z,8.80
2018-07-30T20:40:22.727Z,9.00
2018-07-30T20:41:54.294Z,10.10
2018-07-30T20:43:25.964Z,9.60
2018-07-30T20:44:57.498Z,10.00
2018-07-30T20:46:29.010Z,9.60
2018-07-30T20:48:00.580Z,9.60
2018-07-30T20:49:32.152Z,9.60
2018-07-30T20:51:03.724Z,9.90
2018-07-30T20:52:35.295Z,10.20
2018-07-30T20:54:06.868Z,9.90
2018-07-30T20:55:38.453Z,9.00
2018-07-30T20:57:10.049Z,8.80
2018-07-30T20:58:41.583Z,9.20
2018-07-30T21:00:13.154Z,10.20
2018-07-30T21:01:44.833Z,10.30
2018-07-30T21:03:16.299Z,10.10
2018-07-30T21:04:47.870Z,10.10
2018-07-30T21:06:19.474Z,10.50
2018-07-30T21:07:51.013Z,10.40
2018-07-30T21:09:22.583Z,9.60
2018-07-30T21:10:54.193Z,11.20
2018-07-30T21:12:25.726Z,10.40
2018-07-30T21:13:57.298Z,9.90
2018-07-30T21:15:28.871Z,11.40
2018-07-30T21:17:00.441Z,10.60